Terminal Aerodrome Forecast
Issued by NWS

Home | Current Version | Previous Version | Text Only | Print | Product List | Glossary On
Versions: 1 2 3 4 5 6 7 8 9 10 11 12
000
FTUS44 KTSA 221700
TAFMLC
TAF
KMLC 221720Z 2218/2318 16007KT P6SM SCT040
     FM230000 12004KT P6SM BKN250
     FM231000 14003KT P6SM SCT050 OVC120 PROB30 2312/2316 5SM -SHRA
      BR BKN050=

USA.gov is the U.S. government's official web portal to all federal, state and local government web resources and services.